createdAt,value
2023-04-18T00:00:02.215Z,16.95
2023-04-18T00:02:39.790Z,15.27
2023-04-18T00:05:08.514Z,14.77
2023-04-18T00:07:35.649Z,14.93
2023-04-18T00:10:06.606Z,16.45
2023-04-18T00:12:34.363Z,14.50
2023-04-18T00:15:02.295Z,16.65
2023-04-18T00:17:30.361Z,13.68
2023-04-18T00:19:58.441Z,17.20
2023-04-18T00:22:25.993Z,15.60
2023-04-18T00:24:52.768Z,16.00
2023-04-18T00:27:20.544Z,18.77
2023-04-18T00:29:48.118Z,16.10
2023-04-18T00:32:17.752Z,17.10
2023-04-18T00:34:45.157Z,15.82
2023-04-18T00:37:13.029Z,17.08
2023-04-18T00:39:42.140Z,18.23
2023-04-18T00:42:08.978Z,16.33
2023-04-18T00:44:36.214Z,16.67
2023-04-18T00:47:03.065Z,17.83
2023-04-18T00:49:30.092Z,17.02
2023-04-18T00:51:57.152Z,19.88
2023-04-18T00:54:25.401Z,16.85
2023-04-18T00:56:52.646Z,19.13
2023-04-18T00:59:21.123Z,18.65
2023-04-18T01:01:48.101Z,20.50
2023-04-18T01:04:15.115Z,19.38
2023-04-18T01:06:44.009Z,18.55
2023-04-18T01:09:11.216Z,21.88
2023-04-18T01:11:38.094Z,25.45
2023-04-18T01:14:07.445Z,21.00
2023-04-18T01:16:40.051Z,20.88
2023-04-18T01:19:07.086Z,24.60
2023-04-18T01:21:37.463Z,23.27
2023-04-18T01:24:12.663Z,23.95
2023-04-18T01:26:44.040Z,25.02
2023-04-18T01:29:11.513Z,27.02
2023-04-18T01:31:39.307Z,25.27
2023-04-18T01:34:08.003Z,25.10
2023-04-18T01:36:35.998Z,26.10
2023-04-18T01:39:03.007Z,28.88
2023-04-18T01:41:32.391Z,27.58
2023-04-18T01:43:59.760Z,29.40
2023-04-18T01:46:27.010Z,27.73
2023-04-18T01:48:54.750Z,32.55
2023-04-18T01:51:22.278Z,29.95
2023-04-18T01:53:49.309Z,28.35
2023-04-18T01:56:16.274Z,29.50
2023-04-18T01:58:43.096Z,31.25
2023-04-18T02:01:10.443Z,31.33
2023-04-18T02:03:38.747Z,31.80
2023-04-18T02:06:06.790Z,32.53
2023-04-18T02:08:36.104Z,32.00
2023-04-18T02:11:05.590Z,32.55
2023-04-18T02:13:32.710Z,32.17
2023-04-18T02:15:59.852Z,31.98
2023-04-18T02:18:27.401Z,33.97
2023-04-18T02:20:54.417Z,32.30
2023-04-18T02:23:22.702Z,31.27
2023-04-18T02:25:50.699Z,35.08
2023-04-18T02:28:18.100Z,31.05
2023-04-18T02:30:44.892Z,33.40
2023-04-18T02:33:11.970Z,31.02
2023-04-18T02:35:39.015Z,32.03
2023-04-18T02:38:05.947Z,29.33
2023-04-18T02:40:32.762Z,33.50
2023-04-18T02:42:59.978Z,29.50
2023-04-18T02:45:27.635Z,32.00
2023-04-18T02:47:57.129Z,32.92
2023-04-18T02:50:24.872Z,30.70
2023-04-18T02:52:53.460Z,28.77
2023-04-18T02:55:26.874Z,31.10
2023-04-18T02:57:57.433Z,32.65
2023-04-18T03:00:50.549Z,32.70
2023-04-18T03:03:44.669Z,32.05
2023-04-18T03:06:24.901Z,30.55
2023-04-18T03:08:53.025Z,31.08
2023-04-18T03:11:20.109Z,35.47
2023-04-18T03:13:47.268Z,33.67
2023-04-18T03:16:15.042Z,35.47
2023-04-18T03:18:44.164Z,34.63
2023-04-18T03:21:11.789Z,35.00
2023-04-18T03:23:38.996Z,37.63
2023-04-18T03:26:08.057Z,36.70
2023-04-18T03:28:37.840Z,37.20
2023-04-18T03:31:05.457Z,38.67
2023-04-18T03:33:35.212Z,34.97
2023-04-18T03:36:08.838Z,35.05
2023-04-18T03:38:36.894Z,33.63
2023-04-18T03:41:03.698Z,32.72
2023-04-18T03:43:34.259Z,32.50
2023-04-18T03:46:01.464Z,36.28
2023-04-18T03:48:35.767Z,35.03
2023-04-18T03:51:06.369Z,38.00
2023-04-18T03:53:34.040Z,32.85
2023-04-18T03:56:00.875Z,35.13
2023-04-18T03:58:42.346Z,35.92
2023-04-18T04:01:09.289Z,33.42
2023-04-18T04:03:37.210Z,35.40
2023-04-18T04:06:06.445Z,31.10
2023-04-18T04:08:33.942Z,38.55
2023-04-18T04:11:00.962Z,36.83
2023-04-18T04:13:28.215Z,34.13
2023-04-18T04:15:55.571Z,36.63
2023-04-18T04:18:29.721Z,35.90
2023-04-18T04:20:59.116Z,35.75
2023-04-18T04:23:36.319Z,37.75
2023-04-18T04:26:03.258Z,36.35
2023-04-18T04:28:40.087Z,35.70
2023-04-18T04:31:08.342Z,39.83
2023-04-18T04:33:38.791Z,37.03
2023-04-18T04:36:15.203Z,35.22
2023-04-18T04:38:44.337Z,40.22
2023-04-18T04:41:11.766Z,35.78
2023-04-18T04:43:41.411Z,38.67
2023-04-18T04:46:09.384Z,34.50
2023-04-18T04:48:36.180Z,35.67
2023-04-18T04:51:03.977Z,34.30
2023-04-18T04:53:31.402Z,37.15
2023-04-18T04:56:00.226Z,36.83
2023-04-18T04:58:27.641Z,36.42
2023-04-18T05:00:57.244Z,34.28
2023-04-18T05:03:24.368Z,34.45
2023-04-18T05:05:51.599Z,37.60
2023-04-18T05:08:18.436Z,35.47
2023-04-18T05:10:45.956Z,35.00
2023-04-18T05:13:12.729Z,36.13
2023-04-18T05:15:39.749Z,37.80
2023-04-18T05:18:07.081Z,37.80
2023-04-18T05:20:33.870Z,35.00
2023-04-18T05:23:01.081Z,35.75
2023-04-18T05:25:29.712Z,38.83
2023-04-18T05:27:56.975Z,41.58
2023-04-18T05:30:23.790Z,33.78
2023-04-18T05:32:50.917Z,37.40
2023-04-18T05:35:17.777Z,37.17
2023-04-18T05:37:44.818Z,32.35
2023-04-18T05:40:12.890Z,40.35
2023-04-18T05:42:39.775Z,40.72
2023-04-18T05:45:07.124Z,60.83
2023-04-18T05:47:34.165Z,41.67
2023-04-18T05:50:01.096Z,43.33
2023-04-18T05:52:27.906Z,44.00
2023-04-18T05:54:54.725Z,38.50
2023-04-18T05:57:21.542Z,63.40
2023-04-18T05:59:48.316Z,42.88
2023-04-18T06:02:15.231Z,48.97
2023-04-18T06:04:42.976Z,45.50
2023-04-18T06:07:10.133Z,39.20
2023-04-18T06:09:36.988Z,47.28
2023-04-18T06:12:04.159Z,48.28
2023-04-18T06:14:31.034Z,39.88
2023-04-18T06:16:58.087Z,38.15
2023-04-18T06:19:25.017Z,53.78
2023-04-18T06:21:54.156Z,40.30
2023-04-18T06:24:20.975Z,37.80
2023-04-18T06:26:48.386Z,43.60
2023-04-18T06:29:15.319Z,44.17
2023-04-18T06:31:45.479Z,51.45
2023-04-18T06:34:13.183Z,41.83
2023-04-18T06:36:40.317Z,38.65
2023-04-18T06:39:07.296Z,43.78
2023-04-18T06:41:34.127Z,37.75
2023-04-18T06:44:04.129Z,34.55
2023-04-18T06:46:32.547Z,35.65
2023-04-18T06:48:59.736Z,38.53
2023-04-18T06:51:27.395Z,34.38
2023-04-18T06:53:54.435Z,40.40
2023-04-18T06:56:21.651Z,35.72
2023-04-18T06:58:49.376Z,34.92
2023-04-18T07:01:16.477Z,34.90
2023-04-18T07:03:44.079Z,34.20
2023-04-18T07:06:11.044Z,31.75
2023-04-18T07:08:38.483Z,37.47
2023-04-18T07:11:06.619Z,33.78
2023-04-18T07:13:33.591Z,32.55
2023-04-18T07:16:01.588Z,32.83
2023-04-18T07:18:38.018Z,34.95
2023-04-18T07:21:08.910Z,34.80
2023-04-18T07:23:36.130Z,35.97
2023-04-18T07:26:03.370Z,36.45
2023-04-18T07:28:32.262Z,31.35
2023-04-18T07:30:59.515Z,32.63
2023-04-18T07:33:26.412Z,29.35
2023-04-18T07:35:53.309Z,32.00
2023-04-18T07:38:20.695Z,33.17
2023-04-18T07:40:55.931Z,33.50
2023-04-18T07:43:22.763Z,31.95
2023-04-18T07:45:49.618Z,30.85
2023-04-18T07:48:16.828Z,35.85
2023-04-18T07:50:44.052Z,36.28
2023-04-18T07:53:10.904Z,34.13
2023-04-18T07:55:37.729Z,36.95
2023-04-18T07:58:04.530Z,34.13
2023-04-18T08:00:32.713Z,31.67
2023-04-18T08:02:59.616Z,35.45
2023-04-18T08:05:26.613Z,33.10
2023-04-18T08:07:53.485Z,34.65
2023-04-18T08:10:22.465Z,37.47
2023-04-18T08:12:50.473Z,35.35
2023-04-18T08:15:17.231Z,34.25
2023-04-18T08:17:45.280Z,36.20
2023-04-18T08:20:12.967Z,36.10
2023-04-18T08:22:50.426Z,34.85
2023-04-18T08:25:24.105Z,37.55
2023-04-18T08:27:50.875Z,36.92
2023-04-18T08:30:17.939Z,39.88
2023-04-18T08:32:44.854Z,36.40
2023-04-18T08:35:11.713Z,38.78
2023-04-18T08:37:38.878Z,35.88
2023-04-18T08:40:07.238Z,36.95
2023-04-18T08:42:35.426Z,37.83
2023-04-18T08:45:02.686Z,32.95
2023-04-18T08:47:30.062Z,36.90
2023-04-18T08:49:58.425Z,34.50
2023-04-18T08:52:27.250Z,33.25
2023-04-18T08:54:54.067Z,36.33
2023-04-18T08:57:23.750Z,38.08
2023-04-18T08:59:51.264Z,34.13
2023-04-18T09:02:19.222Z,29.80
2023-04-18T09:04:49.210Z,36.22
2023-04-18T09:07:18.167Z,30.55
2023-04-18T09:09:45.473Z,29.83
2023-04-18T09:12:18.323Z,29.83
2023-04-18T09:14:47.173Z,32.15
2023-04-18T09:17:18.368Z,29.60
2023-04-18T09:19:48.953Z,33.20
2023-04-18T09:22:17.506Z,31.55
2023-04-18T09:24:57.398Z,29.80
2023-04-18T09:27:25.017Z,28.23
2023-04-18T09:29:55.252Z,30.73
2023-04-18T09:32:25.672Z,29.02
2023-04-18T09:34:58.157Z,27.83
2023-04-18T09:37:26.340Z,27.75
2023-04-18T09:39:53.492Z,28.58
2023-04-18T09:42:21.196Z,28.42
2023-04-18T09:44:59.782Z,25.92
2023-04-18T09:47:28.258Z,35.15
2023-04-18T09:49:55.589Z,31.73
2023-04-18T09:52:25.832Z,27.05
2023-04-18T09:55:00.216Z,27.08
2023-04-18T09:57:29.334Z,37.88
2023-04-18T10:00:13.374Z,28.58
2023-04-18T10:03:02.590Z,28.38
2023-04-18T10:05:35.768Z,26.92
2023-04-18T10:08:04.179Z,27.50
2023-04-18T10:10:31.154Z,25.88
2023-04-18T10:13:00.378Z,26.92
2023-04-18T10:15:29.548Z,25.80
2023-04-18T10:18:05.359Z,24.83
2023-04-18T10:20:35.056Z,25.40
2023-04-18T10:23:31.459Z,24.92
2023-04-18T10:25:59.136Z,23.77
2023-04-18T10:28:27.541Z,26.70
2023-04-18T10:31:05.597Z,25.92
2023-04-18T10:33:42.353Z,24.50
2023-04-18T10:36:09.870Z,25.60
2023-04-18T10:38:45.221Z,25.70
2023-04-18T10:41:22.647Z,23.25
2023-04-18T10:44:14.632Z,24.17
2023-04-18T10:47:03.811Z,22.10
2023-04-18T10:49:32.879Z,23.65
2023-04-18T10:52:01.657Z,23.55
2023-04-18T10:54:47.585Z,22.75
2023-04-18T10:57:15.613Z,23.20
2023-04-18T10:59:44.066Z,21.80
2023-04-18T11:02:32.606Z,21.77
2023-04-18T11:05:07.623Z,19.98
2023-04-18T11:07:37.687Z,21.17
2023-04-18T11:10:06.306Z,23.10
2023-04-18T11:12:36.290Z,22.23
2023-04-18T11:15:15.179Z,22.15
2023-04-18T11:17:44.518Z,20.88
2023-04-18T11:20:15.160Z,19.95
2023-04-18T11:22:59.601Z,20.25
2023-04-18T11:25:34.530Z,19.15
2023-04-18T11:28:03.823Z,19.02
2023-04-18T11:30:41.309Z,21.90
2023-04-18T11:33:09.585Z,18.65
2023-04-18T11:35:38.673Z,20.33
2023-04-18T11:38:07.192Z,21.27
2023-04-18T11:40:37.738Z,19.83
2023-04-18T11:43:06.571Z,17.35
2023-04-18T11:45:33.846Z,17.48
2023-04-18T11:48:02.532Z,18.23
2023-04-18T11:50:39.628Z,17.88
2023-04-18T11:53:06.817Z,16.00
2023-04-18T11:55:34.156Z,16.73
2023-04-18T11:58:02.680Z,17.00
2023-04-18T12:00:38.843Z,15.98
2023-04-18T12:03:13.378Z,13.02
2023-04-18T12:05:43.704Z,14.07
2023-04-18T12:08:21.409Z,11.45
2023-04-18T12:10:54.726Z,11.13
2023-04-18T12:13:33.324Z,10.00
2023-04-18T12:16:03.069Z,10.65
2023-04-18T12:18:31.720Z,10.82
2023-04-18T12:21:02.560Z,11.10
2023-04-18T12:23:35.850Z,10.25
2023-04-18T12:26:06.244Z,9.32
2023-04-18T12:28:34.873Z,10.20
2023-04-18T12:31:03.093Z,10.63
2023-04-18T12:33:31.064Z,11.23
2023-04-18T12:35:59.051Z,11.60
2023-04-18T12:38:27.349Z,8.85
2023-04-18T12:40:54.652Z,10.25
2023-04-18T12:43:22.253Z,8.80
2023-04-18T12:45:50.331Z,9.02
2023-04-18T12:48:18.552Z,7.85
2023-04-18T12:50:46.434Z,9.02
2023-04-18T12:53:14.327Z,8.55
2023-04-18T12:55:41.290Z,8.57
2023-04-18T12:58:08.419Z,8.13
2023-04-18T13:00:35.764Z,8.65
2023-04-18T13:03:03.007Z,7.88
2023-04-18T13:05:32.982Z,8.45
2023-04-18T13:10:31.689Z,8.32
2023-04-18T13:12:58.393Z,8.98
2023-04-18T13:15:26.069Z,9.63
2023-04-18T13:17:53.343Z,7.80
2023-04-18T13:20:20.446Z,8.18
2023-04-18T13:22:47.363Z,9.60
2023-04-18T13:25:14.336Z,7.72
2023-04-18T13:27:42.069Z,7.70
2023-04-18T13:30:10.939Z,7.57
2023-04-18T13:32:39.216Z,7.68
2023-04-18T13:35:09.167Z,9.70
2023-04-18T13:37:37.065Z,7.88
2023-04-18T13:40:06.419Z,7.38
2023-04-18T13:42:37.625Z,7.25
2023-04-18T13:45:05.198Z,9.30
2023-04-18T13:47:32.092Z,7.90
2023-04-18T13:49:58.937Z,7.45
2023-04-18T13:52:26.282Z,8.38
2023-04-18T13:54:53.279Z,8.70
2023-04-18T13:57:20.348Z,8.13
2023-04-18T13:59:47.223Z,7.45
2023-04-18T14:02:14.591Z,7.22
2023-04-18T14:04:41.566Z,7.75
2023-04-18T14:07:09.140Z,8.80
2023-04-18T14:09:36.337Z,8.95
2023-04-18T14:12:03.188Z,6.50
2023-04-18T14:14:30.378Z,6.35
2023-04-18T14:16:57.237Z,6.88
2023-04-18T14:19:24.113Z,9.73
2023-04-18T14:21:51.035Z,8.00
2023-04-18T14:24:18.079Z,7.20
2023-04-18T14:26:44.867Z,6.25
2023-04-18T14:29:11.786Z,7.05
2023-04-18T14:31:38.805Z,7.65
2023-04-18T14:34:06.493Z,5.93
2023-04-18T14:36:33.412Z,6.80
2023-04-18T14:39:00.493Z,6.32
2023-04-18T14:41:27.540Z,6.15
2023-04-18T14:43:54.433Z,6.90
2023-04-18T14:46:21.403Z,5.85
2023-04-18T14:48:48.502Z,6.05
2023-04-18T14:51:16.492Z,6.03
2023-04-18T14:53:44.445Z,6.97
2023-04-18T14:56:11.466Z,6.25
2023-04-18T14:58:38.717Z,5.90
2023-04-18T15:01:05.755Z,5.45
2023-04-18T15:03:33.379Z,5.63
2023-04-18T15:06:00.382Z,6.40
2023-04-18T15:08:27.394Z,5.22
2023-04-18T15:10:54.161Z,5.28
2023-04-18T15:13:21.171Z,5.95
2023-04-18T15:15:56.300Z,6.88
2023-04-18T15:18:23.240Z,5.38
2023-04-18T15:20:51.035Z,5.80
2023-04-18T15:23:17.794Z,5.10
2023-04-18T15:25:45.474Z,5.10
2023-04-18T15:28:13.736Z,7.05
2023-04-18T15:30:40.709Z,5.65
2023-04-18T15:33:08.028Z,5.65
2023-04-18T15:35:35.815Z,5.95
2023-04-18T15:38:03.059Z,4.88
2023-04-18T15:40:30.478Z,5.75
2023-04-18T15:42:59.383Z,5.57
2023-04-18T15:45:26.454Z,4.97
2023-04-18T15:47:53.486Z,6.50
2023-04-18T15:50:20.628Z,6.43
2023-04-18T15:52:47.482Z,6.60
2023-04-18T15:55:14.333Z,5.38
2023-04-18T15:57:41.729Z,5.88
2023-04-18T16:00:16.061Z,7.55
2023-04-18T16:02:46.611Z,7.35
2023-04-18T16:05:14.205Z,5.07
2023-04-18T16:07:42.018Z,5.30
2023-04-18T16:10:10.314Z,6.18
2023-04-18T16:12:38.542Z,6.30
2023-04-18T16:15:06.950Z,5.30
2023-04-18T16:17:34.455Z,6.82
2023-04-18T16:20:01.600Z,5.93
2023-04-18T16:22:28.469Z,4.68
2023-04-18T16:24:55.504Z,6.38
2023-04-18T16:27:22.387Z,4.93
2023-04-18T16:29:49.662Z,5.70
2023-04-18T16:32:16.513Z,5.07
2023-04-18T16:34:45.476Z,4.93
2023-04-18T16:37:12.258Z,5.72
2023-04-18T16:39:39.014Z,6.82
2023-04-18T16:42:05.936Z,6.05
2023-04-18T16:44:33.180Z,5.80
2023-04-18T16:47:00.255Z,6.63
2023-04-18T16:49:27.621Z,8.05
2023-04-18T16:51:54.471Z,6.72
2023-04-18T16:54:21.418Z,5.45
2023-04-18T16:56:48.311Z,5.85
2023-04-18T16:59:15.085Z,6.15
2023-04-18T17:01:42.048Z,5.60
2023-04-18T17:04:08.950Z,7.55
2023-04-18T17:06:35.832Z,7.93
2023-04-18T17:09:05.108Z,8.13
2023-04-18T17:11:34.714Z,8.18
2023-04-18T17:14:01.631Z,12.05
2023-04-18T17:16:28.425Z,5.57
2023-04-18T17:18:55.381Z,5.75
2023-04-18T17:21:22.678Z,6.97
2023-04-18T17:23:49.646Z,7.28
2023-04-18T17:26:16.485Z,7.00
2023-04-18T17:28:43.211Z,6.82
2023-04-18T17:31:10.070Z,5.65
2023-04-18T17:33:37.097Z,6.68
2023-04-18T17:36:06.357Z,6.43
2023-04-18T17:38:33.271Z,9.40
2023-04-18T17:41:00.860Z,9.60
2023-04-18T17:43:28.011Z,9.00
2023-04-18T17:45:56.833Z,17.50
2023-04-18T17:48:23.780Z,21.67
2023-04-18T17:50:50.607Z,23.25
2023-04-18T17:53:18.180Z,7.93
2023-04-18T17:55:46.842Z,7.15
2023-04-18T17:58:14.396Z,7.75
2023-04-18T18:00:41.299Z,6.32
2023-04-18T18:03:13.600Z,8.48
2023-04-18T18:05:41.906Z,21.85
2023-04-18T18:08:08.831Z,19.00
2023-04-18T18:10:35.726Z,12.52
2023-04-18T18:13:02.583Z,23.55
2023-04-18T18:15:30.925Z,13.80
2023-04-18T18:17:58.157Z,10.50
2023-04-18T18:20:25.774Z,10.52
2023-04-18T18:22:54.035Z,8.35
2023-04-18T18:25:21.485Z,10.90
2023-04-18T18:27:48.303Z,7.32
2023-04-18T18:30:15.462Z,8.90
2023-04-18T18:32:42.243Z,7.22
2023-04-18T18:35:09.350Z,7.60
2023-04-18T18:37:36.239Z,7.63
2023-04-18T18:40:07.331Z,9.10
2023-04-18T18:42:34.352Z,8.68
2023-04-18T18:45:01.612Z,9.73
2023-04-18T18:47:30.466Z,10.60
2023-04-18T18:49:57.397Z,9.15
2023-04-18T18:52:24.905Z,9.43
2023-04-18T18:54:52.757Z,9.80
2023-04-18T18:57:19.581Z,9.55
2023-04-18T18:59:46.756Z,8.75
2023-04-18T19:02:13.723Z,8.98
2023-04-18T19:04:40.891Z,7.93
2023-04-18T19:07:08.186Z,10.80
2023-04-18T19:09:36.783Z,11.05
2023-04-18T19:12:06.965Z,10.77
2023-04-18T19:14:34.049Z,11.75
2023-04-18T19:17:02.325Z,10.15
2023-04-18T19:19:29.445Z,11.70
2023-04-18T19:21:56.436Z,10.15
2023-04-18T19:24:23.385Z,10.25
2023-04-18T19:26:50.269Z,10.35
2023-04-18T19:29:18.039Z,8.60
2023-04-18T19:31:45.287Z,8.57
2023-04-18T19:34:13.372Z,7.22
2023-04-18T19:36:40.422Z,8.23
2023-04-18T19:39:08.146Z,8.18
2023-04-18T19:41:34.887Z,8.80
2023-04-18T19:44:02.600Z,8.57
2023-04-18T19:46:29.440Z,8.35
2023-04-18T19:48:56.719Z,6.80
2023-04-18T19:51:23.772Z,7.63
2023-04-18T19:53:50.580Z,7.57
2023-04-18T19:56:17.590Z,7.43
2023-04-18T19:58:47.694Z,8.18
2023-04-18T20:01:19.393Z,8.07
2023-04-18T20:03:47.051Z,7.25
2023-04-18T20:06:14.416Z,8.13
2023-04-18T20:08:41.659Z,6.85
2023-04-18T20:11:10.683Z,7.72
2023-04-18T20:13:38.425Z,7.07
2023-04-18T20:16:06.495Z,7.07
2023-04-18T20:18:35.822Z,7.45
2023-04-18T20:21:04.033Z,7.38
2023-04-18T20:23:31.068Z,8.00
2023-04-18T20:25:58.092Z,8.55
2023-04-18T20:28:25.227Z,7.15
2023-04-18T20:30:52.398Z,7.32
2023-04-18T20:33:19.518Z,6.15
2023-04-18T20:35:47.195Z,7.55
2023-04-18T20:38:14.937Z,7.65
2023-04-18T20:40:45.009Z,7.75
2023-04-18T20:43:13.610Z,8.25
2023-04-18T20:45:43.018Z,8.07
2023-04-18T20:48:10.209Z,8.23
2023-04-18T20:50:37.125Z,7.72
2023-04-18T20:53:04.045Z,8.90
2023-04-18T20:55:31.616Z,8.60
2023-04-18T20:57:58.730Z,7.63
2023-04-18T21:00:25.858Z,8.85
2023-04-18T21:02:52.755Z,7.95
2023-04-18T21:05:19.784Z,7.97
2023-04-18T21:07:46.534Z,7.75
2023-04-18T21:10:13.700Z,8.65
2023-04-18T21:12:40.528Z,9.38
2023-04-18T21:15:07.982Z,8.43
2023-04-18T21:17:34.823Z,10.07
2023-04-18T21:20:01.809Z,9.30
2023-04-18T21:22:28.650Z,8.90
2023-04-18T21:24:55.992Z,10.13
2023-04-18T21:27:22.803Z,10.68
2023-04-18T21:29:49.671Z,21.38
2023-04-18T21:32:16.515Z,27.63
2023-04-18T21:34:43.323Z,12.40
2023-04-18T21:37:10.068Z,9.85
2023-04-18T21:39:38.162Z,11.68
2023-04-18T21:42:05.125Z,10.88
2023-04-18T21:44:31.975Z,11.38
2023-04-18T21:46:58.752Z,10.20
2023-04-18T21:49:25.686Z,10.82
2023-04-18T21:51:52.528Z,8.40
2023-04-18T21:54:19.688Z,9.45
2023-04-18T21:56:46.892Z,8.98
2023-04-18T21:59:13.676Z,9.90
2023-04-18T22:01:40.667Z,8.93
2023-04-18T22:04:07.739Z,8.65
2023-04-18T22:06:34.867Z,10.00
2023-04-18T22:09:01.913Z,8.88
2023-04-18T22:11:29.125Z,9.23
2023-04-18T22:13:57.969Z,9.93
2023-04-18T22:16:24.903Z,10.60
2023-04-18T22:18:51.991Z,8.88
2023-04-18T22:21:19.212Z,10.55
2023-04-18T22:23:46.010Z,9.52
2023-04-18T22:26:13.146Z,10.68
2023-04-18T22:28:40.040Z,10.90
2023-04-18T22:31:06.890Z,9.73
2023-04-18T22:33:34.186Z,11.00
2023-04-18T22:36:01.004Z,13.30
2023-04-18T22:38:27.777Z,10.70
2023-04-18T22:40:57.186Z,11.95
2023-04-18T22:43:24.934Z,11.10
2023-04-18T22:45:51.824Z,11.65
2023-04-18T22:48:20.014Z,10.45
2023-04-18T22:50:47.307Z,10.63
2023-04-18T22:53:15.080Z,10.60
2023-04-18T22:55:43.332Z,11.57
2023-04-18T22:58:11.206Z,12.10
2023-04-18T23:00:38.199Z,13.07
2023-04-18T23:03:05.643Z,12.68
2023-04-18T23:05:34.197Z,13.38
2023-04-18T23:08:01.173Z,13.77
2023-04-18T23:10:28.209Z,13.20
2023-04-18T23:12:55.239Z,12.85
2023-04-18T23:15:22.933Z,11.98
2023-04-18T23:17:53.012Z,13.35
2023-04-18T23:20:20.639Z,13.98
2023-04-18T23:22:50.166Z,12.98
2023-04-18T23:25:17.456Z,12.57
2023-04-18T23:27:44.421Z,13.25
2023-04-18T23:30:12.343Z,13.43
2023-04-18T23:32:39.278Z,14.98
2023-04-18T23:35:06.977Z,14.68
2023-04-18T23:37:34.174Z,14.68
2023-04-18T23:40:01.100Z,15.25
2023-04-18T23:42:28.020Z,14.38
2023-04-18T23:44:55.059Z,14.43
2023-04-18T23:47:21.985Z,16.58
2023-04-18T23:49:48.981Z,16.88
2023-04-18T23:52:15.742Z,15.18
2023-04-18T23:54:42.533Z,15.15
2023-04-18T23:57:09.449Z,15.57
2023-04-18T23:59:36.224Z,14.05
